createdAt,value
2022-12-31T00:01:53.074Z,9.60
2022-12-31T00:04:23.558Z,9.00
2022-12-31T00:06:54.124Z,8.80
2022-12-31T00:09:25.665Z,9.00
2022-12-31T00:11:56.124Z,9.50
2022-12-31T00:14:26.639Z,8.90
2022-12-31T00:16:57.264Z,11.50
2022-12-31T00:19:28.072Z,8.40
2022-12-31T00:21:58.495Z,9.00
2022-12-31T00:24:31.262Z,12.00
2022-12-31T00:27:01.762Z,8.40
2022-12-31T00:29:32.271Z,7.70
2022-12-31T00:32:02.712Z,6.90
2022-12-31T00:34:33.189Z,7.10
2022-12-31T00:37:03.656Z,6.30
2022-12-31T00:39:37.728Z,6.40
2022-12-31T00:42:08.336Z,6.20
2022-12-31T00:44:38.836Z,6.00
2022-12-31T00:47:09.266Z,8.50
2022-12-31T00:49:39.672Z,6.70
2022-12-31T00:52:10.099Z,6.10
2022-12-31T00:54:40.891Z,6.00
2022-12-31T00:57:11.388Z,6.20
2022-12-31T00:59:41.818Z,5.80
2022-12-31T01:02:12.522Z,5.80
2022-12-31T01:04:43.251Z,5.50
2022-12-31T01:07:13.760Z,5.50
2022-12-31T01:09:44.590Z,6.20
2022-12-31T01:12:15.031Z,5.50
2022-12-31T01:14:45.938Z,6.00
2022-12-31T01:17:17.366Z,5.80
2022-12-31T01:19:47.784Z,5.40
2022-12-31T01:22:18.253Z,5.30
2022-12-31T01:24:48.640Z,7.00
2022-12-31T01:27:19.094Z,6.10
2022-12-31T01:29:49.591Z,6.30
2022-12-31T01:32:20.009Z,5.80
2022-12-31T01:34:51.307Z,5.50
2022-12-31T01:37:21.735Z,5.50
2022-12-31T01:39:52.224Z,5.40
2022-12-31T01:42:22.961Z,5.10
2022-12-31T01:44:56.343Z,5.70
2022-12-31T01:47:37.458Z,8.60
2022-12-31T01:50:12.457Z,6.00
2022-12-31T01:52:46.600Z,4.90
2022-12-31T01:55:20.899Z,5.60
2022-12-31T01:58:09.241Z,4.80
2022-12-31T02:00:40.061Z,4.50
2022-12-31T02:03:11.539Z,4.60
2022-12-31T02:05:48.928Z,4.60
2022-12-31T02:08:20.586Z,4.70
2022-12-31T02:10:51.190Z,4.40
2022-12-31T02:13:21.943Z,4.60
2022-12-31T02:16:01.428Z,4.20
2022-12-31T02:18:39.593Z,4.20
2022-12-31T02:21:38.091Z,4.30
2022-12-31T02:24:41.463Z,3.90
2022-12-31T02:27:19.488Z,4.00
2022-12-31T02:30:06.398Z,3.80
2022-12-31T02:32:48.759Z,3.60
2022-12-31T02:35:24.363Z,3.40
2022-12-31T02:37:59.923Z,3.70
2022-12-31T02:40:31.136Z,3.90
2022-12-31T02:43:01.529Z,3.10
2022-12-31T02:49:53.991Z,2.80
2022-12-31T02:52:39.231Z,2.70
2022-12-31T02:55:17.860Z,2.50
2022-12-31T02:57:56.679Z,2.80
2022-12-31T03:01:00.503Z,2.40
2022-12-31T03:03:32.644Z,2.30
2022-12-31T03:06:04.466Z,3.30
2022-12-31T03:08:55.319Z,2.90
2022-12-31T03:11:39.822Z,2.60
2022-12-31T03:14:10.300Z,3.20
2022-12-31T03:16:40.800Z,3.60
2022-12-31T03:19:31.199Z,2.90
2022-12-31T03:22:19.778Z,2.70
2022-12-31T03:25:07.715Z,2.80
2022-12-31T03:27:38.583Z,2.80
2022-12-31T03:30:11.831Z,3.10
2022-12-31T03:32:43.250Z,3.10
2022-12-31T03:35:15.271Z,3.30
2022-12-31T03:40:16.470Z,3.00
2022-12-31T03:45:16.698Z,2.60
2022-12-31T03:47:47.396Z,2.90
2022-12-31T03:50:19.296Z,2.40
2022-12-31T03:52:50.090Z,2.40
2022-12-31T03:55:20.798Z,2.50
2022-12-31T03:57:51.355Z,2.50
2022-12-31T04:00:23.519Z,3.10
2022-12-31T04:02:54.553Z,2.60
2022-12-31T04:05:25.613Z,2.90
2022-12-31T04:07:56.661Z,2.80
2022-12-31T04:10:27.118Z,2.70
2022-12-31T04:13:00.402Z,2.50
2022-12-31T04:15:30.918Z,2.70
2022-12-31T04:18:01.467Z,3.00
2022-12-31T04:20:31.881Z,2.90
2022-12-31T04:23:02.335Z,2.50
2022-12-31T04:25:32.977Z,2.40
2022-12-31T04:28:03.472Z,2.40
2022-12-31T04:30:33.920Z,2.00
2022-12-31T04:33:04.372Z,2.00
2022-12-31T04:35:34.882Z,2.70
2022-12-31T04:38:05.322Z,2.20
2022-12-31T04:40:55.834Z,2.40
2022-12-31T04:43:27.323Z,2.90
2022-12-31T04:45:57.891Z,2.20
2022-12-31T04:48:28.508Z,2.40
2022-12-31T04:50:58.945Z,2.10
2022-12-31T04:53:29.739Z,2.30
2022-12-31T04:56:00.376Z,2.40
2022-12-31T04:58:30.838Z,2.10
2022-12-31T05:01:01.626Z,2.10
2022-12-31T05:03:32.582Z,2.10
2022-12-31T05:06:07.863Z,1.70
2022-12-31T05:08:38.345Z,2.10
2022-12-31T05:11:08.980Z,2.10
2022-12-31T05:13:40.742Z,2.00
2022-12-31T05:16:12.064Z,2.10
2022-12-31T05:18:42.611Z,2.10
2022-12-31T05:21:19.289Z,2.40
2022-12-31T05:23:50.054Z,2.20
2022-12-31T05:26:20.661Z,1.90
2022-12-31T05:28:51.063Z,2.40
2022-12-31T05:31:21.476Z,1.80
2022-12-31T05:33:51.904Z,2.30
2022-12-31T05:36:22.327Z,2.50
2022-12-31T05:38:52.796Z,2.40
2022-12-31T05:41:23.252Z,1.90
2022-12-31T05:43:54.210Z,1.90
2022-12-31T05:46:24.694Z,2.20
2022-12-31T05:48:55.237Z,2.10
2022-12-31T05:51:25.631Z,1.90
2022-12-31T05:53:56.116Z,1.70
2022-12-31T05:56:26.708Z,2.00
2022-12-31T05:58:57.474Z,2.10
2022-12-31T06:01:27.972Z,2.00
2022-12-31T06:03:58.627Z,1.90
2022-12-31T06:06:29.195Z,2.40
2022-12-31T06:08:59.617Z,2.20
2022-12-31T06:11:30.073Z,1.80
2022-12-31T06:14:00.494Z,2.00
2022-12-31T06:16:31.032Z,2.00
2022-12-31T06:19:02.399Z,1.80
2022-12-31T06:21:33.239Z,1.80
2022-12-31T06:24:03.656Z,1.90
2022-12-31T06:26:34.198Z,1.70
2022-12-31T06:29:05.031Z,1.60
2022-12-31T06:31:35.745Z,1.80
2022-12-31T06:34:06.303Z,1.70
2022-12-31T06:36:36.726Z,1.60
2022-12-31T06:39:07.965Z,2.00
2022-12-31T06:41:38.687Z,1.90
2022-12-31T06:44:09.468Z,1.90
2022-12-31T06:46:39.920Z,1.90
2022-12-31T06:49:10.483Z,2.20
2022-12-31T06:51:40.981Z,2.20
2022-12-31T06:54:11.384Z,2.20
2022-12-31T06:56:46.473Z,3.10
2022-12-31T06:59:26.886Z,2.20
2022-12-31T07:02:15.745Z,2.30
2022-12-31T07:05:08.661Z,2.10
2022-12-31T07:07:50.220Z,2.00
2022-12-31T07:10:30.272Z,2.20
2022-12-31T07:13:20.154Z,2.40
2022-12-31T07:16:04.076Z,1.70
2022-12-31T07:18:42.430Z,2.30
2022-12-31T07:21:16.186Z,1.90
2022-12-31T07:23:47.790Z,2.10
2022-12-31T07:26:33.703Z,1.80
2022-12-31T07:29:14.569Z,1.80
2022-12-31T07:31:58.933Z,2.40
2022-12-31T07:34:38.046Z,2.20
2022-12-31T07:37:13.731Z,2.00
2022-12-31T07:39:54.595Z,2.10
2022-12-31T07:42:33.332Z,2.00
2022-12-31T07:45:11.028Z,1.90
2022-12-31T07:47:42.595Z,1.80
2022-12-31T07:50:18.529Z,2.40
2022-12-31T07:52:50.301Z,2.10
2022-12-31T07:55:20.755Z,2.30
2022-12-31T07:58:01.770Z,1.80
2022-12-31T08:00:32.718Z,1.90
2022-12-31T08:03:16.144Z,1.70
2022-12-31T08:05:53.419Z,1.50
2022-12-31T08:08:36.924Z,1.60
2022-12-31T08:11:18.032Z,2.00
2022-12-31T08:13:50.309Z,1.70
2022-12-31T08:16:21.829Z,1.80
2022-12-31T08:18:53.581Z,2.10
2022-12-31T08:21:37.853Z,2.60
2022-12-31T08:24:18.861Z,2.20
2022-12-31T08:27:01.660Z,2.00
2022-12-31T08:29:41.285Z,2.00
2022-12-31T08:32:19.821Z,2.00
2022-12-31T08:34:59.698Z,2.40
2022-12-31T08:37:40.036Z,2.30
2022-12-31T08:40:25.220Z,2.40
2022-12-31T08:43:13.969Z,1.60
2022-12-31T08:45:48.922Z,2.10
2022-12-31T08:48:29.265Z,2.20
2022-12-31T08:51:02.580Z,2.10
2022-12-31T08:53:34.952Z,2.10
2022-12-31T08:56:14.592Z,1.80
2022-12-31T08:58:55.828Z,2.10
2022-12-31T09:01:30.207Z,1.70
2022-12-31T09:04:20.296Z,1.80
2022-12-31T09:06:57.030Z,1.90
2022-12-31T09:09:38.412Z,2.10
2022-12-31T09:12:18.059Z,1.70
2022-12-31T09:14:58.073Z,1.90
2022-12-31T09:17:44.803Z,2.20
2022-12-31T09:20:24.586Z,1.30
2022-12-31T09:22:56.820Z,1.70
2022-12-31T09:25:29.788Z,1.40
2022-12-31T09:28:17.561Z,1.50
2022-12-31T09:30:58.234Z,1.50
2022-12-31T09:33:39.823Z,1.80
2022-12-31T09:36:17.554Z,1.60
2022-12-31T09:38:53.710Z,2.20
2022-12-31T09:41:50.443Z,1.60
2022-12-31T09:44:55.124Z,1.50
2022-12-31T09:48:08.481Z,1.50
2022-12-31T09:50:51.219Z,1.50
2022-12-31T09:53:39.671Z,1.20
2022-12-31T09:56:18.567Z,1.20
2022-12-31T09:58:58.267Z,1.30
2022-12-31T10:01:41.123Z,1.20
2022-12-31T10:04:48.221Z,1.40
2022-12-31T10:07:38.959Z,1.70
2022-12-31T10:10:19.526Z,1.50
2022-12-31T10:13:16.153Z,1.70
2022-12-31T10:16:30.088Z,1.30
2022-12-31T10:19:30.714Z,1.60
2022-12-31T10:22:16.596Z,1.40
2022-12-31T10:25:01.992Z,1.50
2022-12-31T10:27:53.117Z,1.20
2022-12-31T10:30:25.456Z,1.20
2022-12-31T10:33:16.691Z,1.50
2022-12-31T10:35:55.620Z,1.30
2022-12-31T10:38:39.705Z,1.60
2022-12-31T10:41:44.712Z,1.90
2022-12-31T10:44:41.135Z,1.50
2022-12-31T10:47:37.885Z,1.30
2022-12-31T10:50:36.692Z,1.60
2022-12-31T10:53:39.062Z,1.70
2022-12-31T10:56:41.739Z,1.80
2022-12-31T10:59:36.815Z,1.60
2022-12-31T11:02:29.910Z,1.50
2022-12-31T11:05:48.371Z,1.50
2022-12-31T11:08:46.127Z,1.30
2022-12-31T11:11:29.544Z,1.50
2022-12-31T11:14:31.106Z,1.30
2022-12-31T11:17:17.416Z,1.80
2022-12-31T11:20:03.863Z,1.60
2022-12-31T11:22:52.094Z,1.40
2022-12-31T11:25:33.902Z,1.50
2022-12-31T11:28:26.356Z,1.50
2022-12-31T11:31:20.650Z,1.30
2022-12-31T11:34:04.666Z,1.50
2022-12-31T11:36:45.503Z,1.60
2022-12-31T11:39:31.436Z,1.70
2022-12-31T11:42:13.698Z,1.60
2022-12-31T11:44:51.431Z,1.60
2022-12-31T11:48:27.982Z,1.50
2022-12-31T11:50:50.015Z,1.60
2022-12-31T11:53:35.799Z,1.40
2022-12-31T11:56:18.121Z,1.60
2022-12-31T11:58:52.141Z,1.70
2022-12-31T12:01:28.161Z,1.50
2022-12-31T12:03:59.155Z,1.70
2022-12-31T12:06:31.155Z,1.50
2022-12-31T12:09:07.430Z,1.30
2022-12-31T12:11:40.634Z,1.40
2022-12-31T12:14:23.697Z,1.50
2022-12-31T12:17:04.307Z,1.90
2022-12-31T12:19:42.470Z,1.80
2022-12-31T12:22:15.349Z,1.60
2022-12-31T12:24:56.104Z,1.40
2022-12-31T12:27:30.918Z,1.40
2022-12-31T12:30:11.719Z,1.70
2022-12-31T12:32:51.933Z,1.50
2022-12-31T12:35:28.130Z,1.50
2022-12-31T12:38:07.268Z,1.50
2022-12-31T12:40:37.773Z,1.90
2022-12-31T12:43:21.939Z,1.70
2022-12-31T12:45:53.152Z,1.80
2022-12-31T12:52:59.557Z,1.70
2022-12-31T12:55:40.360Z,1.50
2022-12-31T12:58:19.520Z,1.40
2022-12-31T13:00:59.664Z,1.90
2022-12-31T13:04:33.418Z,1.70
2022-12-31T13:07:12.970Z,1.70
2022-12-31T13:09:57.926Z,1.70
2022-12-31T13:13:04.831Z,1.80
2022-12-31T13:15:34.762Z,1.90
2022-12-31T13:18:18.587Z,1.60
2022-12-31T13:20:56.977Z,1.90
2022-12-31T13:23:39.697Z,1.80
2022-12-31T13:26:16.168Z,1.60
2022-12-31T13:28:50.068Z,1.90
2022-12-31T13:31:26.644Z,1.60
2022-12-31T13:34:00.477Z,1.40
2022-12-31T13:36:34.087Z,1.50
2022-12-31T13:39:12.767Z,1.50
2022-12-31T13:41:47.831Z,1.80
2022-12-31T13:44:28.187Z,1.80
2022-12-31T13:47:05.028Z,1.70
2022-12-31T13:49:43.687Z,1.70
2022-12-31T13:52:24.566Z,2.10
2022-12-31T13:55:02.621Z,2.00
2022-12-31T13:57:43.241Z,1.90
2022-12-31T14:00:24.187Z,1.70
2022-12-31T14:03:05.949Z,2.00
2022-12-31T14:05:43.905Z,1.70
2022-12-31T14:08:15.343Z,1.70
2022-12-31T14:10:55.726Z,1.90
2022-12-31T14:13:43.129Z,1.70
2022-12-31T14:16:25.160Z,1.90
2022-12-31T14:19:06.229Z,4.40
2022-12-31T14:21:45.891Z,1.80
2022-12-31T14:24:33.479Z,1.90
2022-12-31T14:27:09.981Z,2.00
2022-12-31T14:29:45.865Z,2.30
2022-12-31T14:32:45.332Z,2.00
2022-12-31T14:35:36.137Z,2.20
2022-12-31T14:38:19.848Z,2.00
2022-12-31T14:41:05.949Z,2.00
2022-12-31T14:43:45.908Z,1.90
2022-12-31T14:46:27.381Z,1.80
2022-12-31T14:49:07.652Z,1.70
2022-12-31T14:51:39.990Z,1.70
2022-12-31T14:57:27.383Z,2.50
2022-12-31T15:00:00.016Z,2.20
2022-12-31T15:02:33.426Z,2.30
2022-12-31T15:05:19.355Z,2.00
2022-12-31T15:08:04.614Z,1.70
2022-12-31T15:10:49.264Z,1.80
2022-12-31T15:13:40.780Z,2.20
2022-12-31T15:19:03.050Z,2.10
2022-12-31T15:21:43.211Z,2.00
2022-12-31T15:24:21.436Z,1.90
2022-12-31T15:29:28.841Z,2.00
2022-12-31T15:32:02.452Z,2.30
2022-12-31T15:34:36.708Z,2.30
2022-12-31T15:37:27.643Z,2.50
2022-12-31T15:40:08.635Z,2.30
2022-12-31T15:42:49.697Z,2.10
2022-12-31T15:45:27.235Z,2.40
2022-12-31T15:48:02.971Z,2.20
2022-12-31T15:50:37.511Z,2.20
2022-12-31T15:53:09.551Z,2.30
2022-12-31T15:55:45.769Z,2.30
2022-12-31T15:58:20.642Z,2.40
2022-12-31T16:01:02.562Z,2.40
2022-12-31T16:03:34.609Z,2.10
2022-12-31T16:06:11.784Z,2.50
2022-12-31T16:08:45.539Z,2.10
2022-12-31T16:11:16.641Z,2.20
2022-12-31T16:13:50.335Z,2.30
2022-12-31T16:16:25.153Z,2.00
2022-12-31T16:18:56.827Z,2.00
2022-12-31T16:21:33.958Z,1.70
2022-12-31T16:24:06.160Z,2.00
2022-12-31T16:26:46.030Z,2.30
2022-12-31T16:29:19.738Z,2.30
2022-12-31T16:31:53.233Z,2.60
2022-12-31T16:34:25.034Z,2.30
2022-12-31T16:37:00.795Z,2.60
2022-12-31T16:39:33.835Z,2.50
2022-12-31T16:42:22.284Z,2.70
2022-12-31T16:44:54.125Z,2.60
2022-12-31T16:47:26.185Z,2.40
2022-12-31T16:50:04.177Z,2.40
2022-12-31T16:52:38.021Z,2.60
2022-12-31T16:55:16.736Z,2.40
2022-12-31T16:57:54.147Z,2.40
2022-12-31T17:00:26.952Z,2.10
2022-12-31T17:03:15.611Z,2.10
2022-12-31T17:06:03.213Z,2.60
2022-12-31T17:08:43.275Z,2.60
2022-12-31T17:11:39.494Z,2.20
2022-12-31T17:14:16.931Z,2.50
2022-12-31T17:17:02.585Z,2.30
2022-12-31T17:19:43.463Z,3.00
2022-12-31T17:22:24.132Z,2.70
2022-12-31T17:27:34.514Z,2.20
2022-12-31T17:30:37.393Z,2.90
2022-12-31T17:33:29.881Z,2.60
2022-12-31T17:36:16.317Z,2.30
2022-12-31T17:38:46.855Z,2.20
2022-12-31T17:41:26.611Z,2.40
2022-12-31T17:44:00.408Z,2.20
2022-12-31T17:46:41.063Z,1.90
2022-12-31T17:49:15.157Z,2.00
2022-12-31T17:51:47.709Z,2.30
2022-12-31T17:54:19.733Z,2.20
2022-12-31T17:56:51.177Z,2.10
2022-12-31T17:59:25.540Z,2.00
2022-12-31T18:01:56.391Z,2.00
2022-12-31T18:04:27.556Z,1.90
2022-12-31T18:06:57.986Z,1.80
2022-12-31T18:09:28.423Z,2.00
2022-12-31T18:12:01.613Z,1.90
2022-12-31T18:14:32.561Z,2.50
2022-12-31T18:17:03.299Z,1.80
2022-12-31T18:22:24.384Z,2.40
2022-12-31T18:24:59.573Z,2.70
2022-12-31T18:27:30.835Z,2.30
2022-12-31T18:30:04.751Z,1.90
2022-12-31T18:32:38.431Z,2.00
2022-12-31T18:35:40.362Z,2.10
2022-12-31T18:38:11.673Z,2.40
2022-12-31T18:40:46.585Z,2.50
2022-12-31T18:43:19.814Z,2.00
2022-12-31T18:45:52.175Z,2.10
2022-12-31T18:48:22.704Z,1.90
2022-12-31T18:50:53.706Z,2.20
2022-12-31T18:53:25.466Z,2.90
2022-12-31T18:55:57.521Z,2.00
2022-12-31T18:58:28.016Z,2.70
2022-12-31T19:00:58.800Z,2.60
2022-12-31T19:03:29.422Z,2.90
2022-12-31T19:05:59.904Z,2.50
2022-12-31T19:08:31.941Z,2.40
2022-12-31T19:11:04.033Z,2.10
2022-12-31T19:13:34.620Z,2.80
2022-12-31T19:16:05.433Z,2.70
2022-12-31T19:18:36.409Z,2.70
2022-12-31T19:21:08.194Z,2.50
2022-12-31T19:23:38.691Z,2.80
2022-12-31T19:26:13.061Z,2.70
2022-12-31T19:28:44.159Z,2.30
2022-12-31T19:31:15.249Z,2.30
2022-12-31T19:33:45.824Z,2.30
2022-12-31T19:36:19.142Z,2.40
2022-12-31T19:38:49.623Z,2.10
2022-12-31T19:41:27.860Z,2.50
2022-12-31T19:43:58.609Z,2.70
2022-12-31T19:46:29.087Z,2.30
2022-12-31T19:48:59.649Z,2.40
2022-12-31T19:51:30.180Z,2.10
2022-12-31T19:54:00.821Z,2.40
2022-12-31T19:56:31.323Z,1.80
2022-12-31T19:59:06.682Z,2.10
2022-12-31T20:01:37.338Z,2.80
2022-12-31T20:04:08.606Z,2.40
2022-12-31T20:06:39.082Z,2.20
2022-12-31T20:09:09.624Z,2.00
2022-12-31T20:11:40.251Z,2.10
2022-12-31T20:14:12.147Z,1.90
2022-12-31T20:19:11.917Z,2.10
2022-12-31T20:21:44.629Z,2.20
2022-12-31T20:24:15.150Z,2.10
2022-12-31T20:26:45.688Z,2.30
2022-12-31T20:29:16.168Z,1.90
2022-12-31T20:31:46.747Z,2.40
2022-12-31T20:34:17.377Z,2.40
2022-12-31T20:36:47.941Z,2.30
2022-12-31T20:39:18.473Z,2.00
2022-12-31T20:41:48.999Z,2.10
2022-12-31T20:44:19.457Z,2.00
2022-12-31T20:46:49.989Z,1.90
2022-12-31T20:49:37.514Z,2.10
2022-12-31T20:52:11.983Z,2.00
2022-12-31T20:54:42.518Z,2.30
2022-12-31T20:57:13.006Z,2.10
2022-12-31T20:59:43.740Z,2.20
2022-12-31T21:02:21.415Z,2.40
2022-12-31T21:04:52.777Z,2.30
2022-12-31T21:07:23.446Z,2.30
2022-12-31T21:09:53.932Z,2.00
2022-12-31T21:12:42.262Z,2.20
2022-12-31T21:15:14.187Z,2.30
2022-12-31T21:17:44.721Z,3.10
2022-12-31T21:20:15.375Z,3.10
2022-12-31T21:22:45.848Z,3.70
2022-12-31T21:25:16.733Z,2.40
2022-12-31T21:27:47.281Z,2.40
2022-12-31T21:30:19.555Z,2.80
2022-12-31T21:32:50.597Z,2.30
2022-12-31T21:38:11.565Z,2.40
2022-12-31T21:40:42.024Z,2.40
2022-12-31T21:43:13.156Z,2.30
2022-12-31T21:45:43.649Z,2.30
2022-12-31T21:48:22.078Z,2.40
2022-12-31T21:50:54.529Z,2.60
2022-12-31T21:53:32.180Z,2.40
2022-12-31T21:56:11.570Z,2.80
2022-12-31T21:58:44.286Z,2.70
2022-12-31T22:01:39.047Z,2.10
2022-12-31T22:04:35.173Z,2.20
2022-12-31T22:07:02.100Z,2.50
2022-12-31T22:09:32.564Z,2.50
2022-12-31T22:12:03.031Z,2.10
2022-12-31T22:14:33.508Z,2.40
2022-12-31T22:17:03.977Z,2.70
2022-12-31T22:19:48.689Z,2.50
2022-12-31T22:22:25.424Z,2.80
2022-12-31T22:24:55.895Z,2.70
2022-12-31T22:27:28.157Z,2.40
2022-12-31T22:30:00.200Z,2.50
2022-12-31T22:32:30.689Z,2.70
2022-12-31T22:35:01.185Z,4.60
2022-12-31T22:37:56.800Z,6.00
2022-12-31T22:40:22.092Z,4.40
2022-12-31T22:42:52.585Z,4.30
2022-12-31T22:45:23.011Z,3.90
2022-12-31T22:47:53.551Z,4.50
2022-12-31T22:50:23.995Z,4.20
2022-12-31T22:52:54.463Z,15.00
2022-12-31T22:55:24.885Z,21.00
2022-12-31T22:57:55.421Z,7.90
2022-12-31T23:00:38.485Z,5.50
2022-12-31T23:03:08.961Z,16.40
2022-12-31T23:05:39.514Z,24.90
2022-12-31T23:08:22.156Z,30.30
2022-12-31T23:11:01.433Z,45.90
2022-12-31T23:13:54.321Z,47.80
2022-12-31T23:16:43.212Z,36.10
2022-12-31T23:19:32.070Z,35.80
2022-12-31T23:22:20.340Z,28.70
2022-12-31T23:24:50.825Z,22.70
2022-12-31T23:27:21.265Z,16.40
2022-12-31T23:29:51.786Z,15.40
2022-12-31T23:32:22.243Z,17.10
2022-12-31T23:34:53.575Z,17.60
2022-12-31T23:37:24.031Z,17.80
2022-12-31T23:39:54.535Z,19.50
2022-12-31T23:42:24.983Z,19.70
2022-12-31T23:44:55.417Z,18.90
2022-12-31T23:47:25.846Z,15.00
2022-12-31T23:49:56.316Z,13.70
2022-12-31T23:52:26.744Z,11.60
2022-12-31T23:54:57.182Z,9.90
2022-12-31T23:57:27.623Z,8.40
2022-12-31T23:59:58.031Z,6.80
